sensor_id;sensor_type;location;lat;lon;timestamp;P1;durP1;ratioP1;P2;durP2;ratioP2
28577;SDS011;15769;52.248;15.818;2023-03-01T00:02:19;179.05;;;67.78;;
28577;SDS011;15769;52.248;15.818;2023-03-01T00:07:24;182.50;;;68.70;;
28577;SDS011;15769;52.248;15.818;2023-03-01T00:12:30;176.43;;;68.35;;
28577;SDS011;15769;52.248;15.818;2023-03-01T00:17:33;203.30;;;74.22;;
28577;SDS011;15769;52.248;15.818;2023-03-01T00:22:38;213.63;;;75.13;;
28577;SDS011;15769;52.248;15.818;2023-03-01T00:27:41;192.20;;;71.28;;
28577;SDS011;15769;52.248;15.818;2023-03-01T00:38:08;203.18;;;73.85;;
28577;SDS011;15769;52.248;15.818;2023-03-01T00:43:11;207.95;;;71.57;;
28577;SDS011;15769;52.248;15.818;2023-03-01T00:48:16;197.07;;;70.90;;
28577;SDS011;15769;52.248;15.818;2023-03-01T00:53:19;206.30;;;71.72;;
28577;SDS011;15769;52.248;15.818;2023-03-01T00:58:23;213.43;;;74.20;;
28577;SDS011;15769;52.248;15.818;2023-03-01T01:03:26;215.55;;;76.10;;
28577;SDS011;15769;52.248;15.818;2023-03-01T01:08:29;210.40;;;72.78;;
28577;SDS011;15769;52.248;15.818;2023-03-01T01:13:31;209.65;;;73.32;;
28577;SDS011;15769;52.248;15.818;2023-03-01T01:18:40;197.05;;;69.68;;
28577;SDS011;15769;52.248;15.818;2023-03-01T01:23:45;230.13;;;78.33;;
28577;SDS011;15769;52.248;15.818;2023-03-01T01:28:49;204.32;;;72.57;;
28577;SDS011;15769;52.248;15.818;2023-03-01T01:33:52;202.40;;;71.38;;
28577;SDS011;15769;52.248;15.818;2023-03-01T01:38:57;180.87;;;65.50;;
28577;SDS011;15769;52.248;15.818;2023-03-01T01:44:11;152.82;;;56.90;;
28577;SDS011;15769;52.248;15.818;2023-03-01T01:54:54;135.57;;;50.22;;
28577;SDS011;15769;52.248;15.818;2023-03-01T02:00:13;126.93;;;48.83;;
28577;SDS011;15769;52.248;15.818;2023-03-01T02:10:50;114.68;;;45.75;;
28577;SDS011;15769;52.248;15.818;2023-03-01T02:15:55;105.50;;;45.80;;
28577;SDS011;15769;52.248;15.818;2023-03-01T02:26:47;138.32;;;55.13;;
28577;SDS011;15769;52.248;15.818;2023-03-01T02:31:56;131.75;;;50.22;;
28577;SDS011;15769;52.248;15.818;2023-03-01T02:37:05;120.87;;;48.43;;
28577;SDS011;15769;52.248;15.818;2023-03-01T02:42:12;122.30;;;47.70;;
28577;SDS011;15769;52.248;15.818;2023-03-01T02:47:15;122.30;;;49.47;;
28577;SDS011;15769;52.248;15.818;2023-03-01T02:57:38;140.37;;;53.00;;
28577;SDS011;15769;52.248;15.818;2023-03-01T03:02:43;137.15;;;49.92;;
28577;SDS011;15769;52.248;15.818;2023-03-01T03:07:52;142.48;;;50.17;;
28577;SDS011;15769;52.248;15.818;2023-03-01T03:12:56;105.60;;;38.80;;
28577;SDS011;15769;52.248;15.818;2023-03-01T03:18:03;137.57;;;51.10;;
28577;SDS011;15769;52.248;15.818;2023-03-01T03:23:07;137.87;;;54.37;;
28577;SDS011;15769;52.248;15.818;2023-03-01T03:28:10;146.07;;;53.63;;
28577;SDS011;15769;52.248;15.818;2023-03-01T03:33:14;146.82;;;54.92;;
28577;SDS011;15769;52.248;15.818;2023-03-01T03:38:18;147.18;;;54.85;;
28577;SDS011;15769;52.248;15.818;2023-03-01T03:43:24;122.43;;;49.50;;
28577;SDS011;15769;52.248;15.818;2023-03-01T03:48:26;124.80;;;46.70;;
28577;SDS011;15769;52.248;15.818;2023-03-01T03:53:29;149.90;;;56.25;;
28577;SDS011;15769;52.248;15.818;2023-03-01T03:58:35;163.20;;;60.67;;
28577;SDS011;15769;52.248;15.818;2023-03-01T04:03:38;161.55;;;60.50;;
28577;SDS011;15769;52.248;15.818;2023-03-01T04:08:40;150.20;;;54.27;;
28577;SDS011;15769;52.248;15.818;2023-03-01T04:13:46;135.40;;;51.42;;
28577;SDS011;15769;52.248;15.818;2023-03-01T04:18:51;126.33;;;48.53;;
28577;SDS011;15769;52.248;15.818;2023-03-01T04:23:55;141.43;;;51.37;;
28577;SDS011;15769;52.248;15.818;2023-03-01T04:28:58;104.57;;;40.37;;
28577;SDS011;15769;52.248;15.818;2023-03-01T04:34:00;141.43;;;52.87;;
28577;SDS011;15769;52.248;15.818;2023-03-01T04:39:04;133.48;;;51.30;;
28577;SDS011;15769;52.248;15.818;2023-03-01T04:44:14;137.33;;;51.33;;
28577;SDS011;15769;52.248;15.818;2023-03-01T04:49:17;152.33;;;56.27;;
28577;SDS011;15769;52.248;15.818;2023-03-01T04:54:19;150.02;;;55.38;;
28577;SDS011;15769;52.248;15.818;2023-03-01T04:59:32;151.37;;;55.30;;
28577;SDS011;15769;52.248;15.818;2023-03-01T05:04:34;116.40;;;42.93;;
28577;SDS011;15769;52.248;15.818;2023-03-01T05:09:43;145.03;;;55.03;;
28577;SDS011;15769;52.248;15.818;2023-03-01T05:14:45;145.97;;;55.40;;
28577;SDS011;15769;52.248;15.818;2023-03-01T05:19:51;145.30;;;51.83;;
28577;SDS011;15769;52.248;15.818;2023-03-01T05:24:54;144.13;;;53.00;;
28577;SDS011;15769;52.248;15.818;2023-03-01T05:29:58;139.67;;;52.30;;
28577;SDS011;15769;52.248;15.818;2023-03-01T05:35:01;122.73;;;50.00;;
28577;SDS011;15769;52.248;15.818;2023-03-01T05:45:07;104.82;;;40.03;;
28577;SDS011;15769;52.248;15.818;2023-03-01T05:50:12;139.70;;;54.07;;
28577;SDS011;15769;52.248;15.818;2023-03-01T05:55:19;146.07;;;55.50;;
28577;SDS011;15769;52.248;15.818;2023-03-01T06:00:23;130.40;;;51.40;;
28577;SDS011;15769;52.248;15.818;2023-03-01T06:05:30;156.17;;;54.90;;
28577;SDS011;15769;52.248;15.818;2023-03-01T06:10:34;154.37;;;56.57;;
28577;SDS011;15769;52.248;15.818;2023-03-01T06:15:39;155.00;;;58.63;;
28577;SDS011;15769;52.248;15.818;2023-03-01T06:20:43;162.93;;;60.53;;
28577;SDS011;15769;52.248;15.818;2023-03-01T06:25:46;157.25;;;59.65;;
28577;SDS011;15769;52.248;15.818;2023-03-01T06:30:49;213.13;;;72.40;;
28577;SDS011;15769;52.248;15.818;2023-03-01T06:35:54;346.30;;;109.05;;
28577;SDS011;15769;52.248;15.818;2023-03-01T06:46:18;334.58;;;108.07;;
28577;SDS011;15769;52.248;15.818;2023-03-01T06:51:20;283.50;;;84.83;;
28577;SDS011;15769;52.248;15.818;2023-03-01T06:56:23;357.75;;;105.20;;
28577;SDS011;15769;52.248;15.818;2023-03-01T07:01:26;293.85;;;97.95;;
28577;SDS011;15769;52.248;15.818;2023-03-01T07:06:29;309.02;;;96.47;;
28577;SDS011;15769;52.248;15.818;2023-03-01T07:11:32;314.98;;;105.30;;
28577;SDS011;15769;52.248;15.818;2023-03-01T07:16:38;309.15;;;103.47;;
28577;SDS011;15769;52.248;15.818;2023-03-01T07:21:43;178.57;;;70.03;;
28577;SDS011;15769;52.248;15.818;2023-03-01T07:26:49;101.40;;;50.95;;
28577;SDS011;15769;52.248;15.818;2023-03-01T07:31:55;91.35;;;45.35;;
28577;SDS011;15769;52.248;15.818;2023-03-01T07:36:58;85.85;;;41.25;;
28577;SDS011;15769;52.248;15.818;2023-03-01T07:42:04;88.03;;;42.00;;
28577;SDS011;15769;52.248;15.818;2023-03-01T07:47:10;77.45;;;36.28;;
28577;SDS011;15769;52.248;15.818;2023-03-01T07:52:13;63.50;;;33.63;;
28577;SDS011;15769;52.248;15.818;2023-03-01T07:57:15;64.45;;;34.22;;
28577;SDS011;15769;52.248;15.818;2023-03-01T08:02:23;63.78;;;34.28;;
28577;SDS011;15769;52.248;15.818;2023-03-01T08:07:25;59.38;;;33.22;;
28577;SDS011;15769;52.248;15.818;2023-03-01T08:12:28;66.40;;;34.63;;
28577;SDS011;15769;52.248;15.818;2023-03-01T08:17:38;79.20;;;39.65;;
28577;SDS011;15769;52.248;15.818;2023-03-01T08:22:43;67.63;;;35.05;;
28577;SDS011;15769;52.248;15.818;2023-03-01T08:27:46;51.40;;;28.40;;
28577;SDS011;15769;52.248;15.818;2023-03-01T08:32:55;50.17;;;30.48;;
28577;SDS011;15769;52.248;15.818;2023-03-01T08:38:01;49.50;;;30.77;;
28577;SDS011;15769;52.248;15.818;2023-03-01T08:43:04;60.42;;;35.20;;
28577;SDS011;15769;52.248;15.818;2023-03-01T08:48:06;48.55;;;29.35;;
28577;SDS011;15769;52.248;15.818;2023-03-01T08:53:09;33.20;;;19.23;;
28577;SDS011;15769;52.248;15.818;2023-03-01T08:58:14;32.47;;;19.23;;
28577;SDS011;15769;52.248;15.818;2023-03-01T09:03:18;34.92;;;20.23;;
28577;SDS011;15769;52.248;15.818;2023-03-01T09:13:43;29.27;;;16.45;;
28577;SDS011;15769;52.248;15.818;2023-03-01T09:18:52;30.63;;;18.48;;
28577;SDS011;15769;52.248;15.818;2023-03-01T09:23:58;29.65;;;17.33;;
28577;SDS011;15769;52.248;15.818;2023-03-01T09:29:01;31.02;;;17.92;;
28577;SDS011;15769;52.248;15.818;2023-03-01T09:34:07;23.13;;;14.05;;
28577;SDS011;15769;52.248;15.818;2023-03-01T09:55:04;39.28;;;18.33;;
28577;SDS011;15769;52.248;15.818;2023-03-01T10:00:30;24.25;;;12.98;;
28577;SDS011;15769;52.248;15.818;2023-03-01T10:10:44;36.88;;;15.75;;
28577;SDS011;15769;52.248;15.818;2023-03-01T10:15:50;29.75;;;13.88;;
28577;SDS011;15769;52.248;15.818;2023-03-01T10:21:12;20.20;;;11.18;;
28577;SDS011;15769;52.248;15.818;2023-03-01T10:31:22;17.42;;;10.90;;
28577;SDS011;15769;52.248;15.818;2023-03-01T10:36:33;20.23;;;10.93;;
28577;SDS011;15769;52.248;15.818;2023-03-01T10:41:44;18.00;;;9.80;;
28577;SDS011;15769;52.248;15.818;2023-03-01T10:46:59;19.23;;;11.35;;
28577;SDS011;15769;52.248;15.818;2023-03-01T10:52:20;28.00;;;14.57;;
28577;SDS011;15769;52.248;15.818;2023-03-01T10:57:28;32.72;;;14.38;;
28577;SDS011;15769;52.248;15.818;2023-03-01T11:02:34;18.23;;;10.00;;
28577;SDS011;15769;52.248;15.818;2023-03-01T11:07:49;23.15;;;11.70;;
28577;SDS011;15769;52.248;15.818;2023-03-01T11:13:08;19.00;;;9.80;;
28577;SDS011;15769;52.248;15.818;2023-03-01T11:18:21;28.40;;;15.32;;
28577;SDS011;15769;52.248;15.818;2023-03-01T11:23:35;22.23;;;12.40;;
28577;SDS011;15769;52.248;15.818;2023-03-01T11:28:40;212.48;;;100.38;;
28577;SDS011;15769;52.248;15.818;2023-03-01T11:38:53;39.47;;;18.95;;
28577;SDS011;15769;52.248;15.818;2023-03-01T12:05:18;22.88;;;11.73;;
28577;SDS011;15769;52.248;15.818;2023-03-01T12:52:57;10.82;;;6.50;;
28577;SDS011;15769;52.248;15.818;2023-03-01T13:08:55;160.18;;;79.78;;
28577;SDS011;15769;52.248;15.818;2023-03-01T13:19:27;26.70;;;16.02;;
28577;SDS011;15769;52.248;15.818;2023-03-01T13:24:39;28.65;;;15.52;;
28577;SDS011;15769;52.248;15.818;2023-03-01T13:29:47;29.73;;;15.88;;
28577;SDS011;15769;52.248;15.818;2023-03-01T13:34:51;39.70;;;18.90;;
28577;SDS011;15769;52.248;15.818;2023-03-01T13:40:00;57.28;;;22.70;;
28577;SDS011;15769;52.248;15.818;2023-03-01T13:45:15;43.83;;;21.13;;
28577;SDS011;15769;52.248;15.818;2023-03-01T13:50:28;39.92;;;17.38;;
28577;SDS011;15769;52.248;15.818;2023-03-01T13:55:45;16.65;;;8.60;;
28577;SDS011;15769;52.248;15.818;2023-03-01T14:00:55;23.30;;;11.27;;
28577;SDS011;15769;52.248;15.818;2023-03-01T14:21:58;19.13;;;10.15;;
28577;SDS011;15769;52.248;15.818;2023-03-01T14:27:11;24.05;;;13.43;;
28577;SDS011;15769;52.248;15.818;2023-03-01T14:37:26;9.25;;;5.95;;
28577;SDS011;15769;52.248;15.818;2023-03-01T14:42:34;11.68;;;6.13;;
28577;SDS011;15769;52.248;15.818;2023-03-01T14:47:39;11.68;;;6.55;;
28577;SDS011;15769;52.248;15.818;2023-03-01T14:52:46;21.75;;;11.35;;
28577;SDS011;15769;52.248;15.818;2023-03-01T14:57:51;25.83;;;13.20;;
28577;SDS011;15769;52.248;15.818;2023-03-01T15:02:56;15.77;;;8.88;;
28577;SDS011;15769;52.248;15.818;2023-03-01T15:07:59;10.60;;;6.43;;
28577;SDS011;15769;52.248;15.818;2023-03-01T15:13:21;10.32;;;6.70;;
28577;SDS011;15769;52.248;15.818;2023-03-01T15:18:35;10.88;;;6.57;;
28577;SDS011;15769;52.248;15.818;2023-03-01T15:29:26;33.20;;;17.37;;
28577;SDS011;15769;52.248;15.818;2023-03-01T15:34:35;26.98;;;13.77;;
28577;SDS011;15769;52.248;15.818;2023-03-01T15:39:40;27.55;;;14.45;;
28577;SDS011;15769;52.248;15.818;2023-03-01T15:45:10;23.92;;;11.98;;
28577;SDS011;15769;52.248;15.818;2023-03-01T15:50:25;25.67;;;12.45;;
28577;SDS011;15769;52.248;15.818;2023-03-01T15:55:35;22.95;;;10.90;;
28577;SDS011;15769;52.248;15.818;2023-03-01T16:00:39;34.38;;;16.17;;
28577;SDS011;15769;52.248;15.818;2023-03-01T16:06:01;63.65;;;24.33;;
28577;SDS011;15769;52.248;15.818;2023-03-01T16:11:15;65.88;;;30.17;;
28577;SDS011;15769;52.248;15.818;2023-03-01T16:16:19;57.38;;;27.42;;
28577;SDS011;15769;52.248;15.818;2023-03-01T16:26:27;115.47;;;48.17;;
28577;SDS011;15769;52.248;15.818;2023-03-01T16:31:34;130.05;;;51.80;;
28577;SDS011;15769;52.248;15.818;2023-03-01T16:36:37;162.50;;;58.15;;
28577;SDS011;15769;52.248;15.818;2023-03-01T16:41:48;177.77;;;67.78;;
28577;SDS011;15769;52.248;15.818;2023-03-01T16:46:56;200.73;;;77.35;;
28577;SDS011;15769;52.248;15.818;2023-03-01T16:51:59;174.03;;;67.30;;
28577;SDS011;15769;52.248;15.818;2023-03-01T16:57:03;131.25;;;53.85;;
28577;SDS011;15769;52.248;15.818;2023-03-01T17:02:11;118.25;;;51.08;;
28577;SDS011;15769;52.248;15.818;2023-03-01T17:07:16;213.35;;;93.07;;
28577;SDS011;15769;52.248;15.818;2023-03-01T17:12:23;211.43;;;98.63;;
28577;SDS011;15769;52.248;15.818;2023-03-01T17:17:27;144.63;;;71.30;;
28577;SDS011;15769;52.248;15.818;2023-03-01T17:22:33;178.00;;;99.83;;
28577;SDS011;15769;52.248;15.818;2023-03-01T17:27:39;511.83;;;301.48;;
28577;SDS011;15769;52.248;15.818;2023-03-01T17:32:43;619.80;;;385.45;;
28577;SDS011;15769;52.248;15.818;2023-03-01T17:37:47;502.95;;;290.40;;
28577;SDS011;15769;52.248;15.818;2023-03-01T17:42:52;519.08;;;299.45;;
28577;SDS011;15769;52.248;15.818;2023-03-01T17:47:55;530.28;;;312.80;;
28577;SDS011;15769;52.248;15.818;2023-03-01T17:52:58;543.67;;;304.10;;
28577;SDS011;15769;52.248;15.818;2023-03-01T17:58:08;554.17;;;302.30;;
28577;SDS011;15769;52.248;15.818;2023-03-01T18:03:12;542.90;;;288.25;;
28577;SDS011;15769;52.248;15.818;2023-03-01T18:08:15;490.65;;;236.23;;
28577;SDS011;15769;52.248;15.818;2023-03-01T18:13:18;381.52;;;172.38;;
28577;SDS011;15769;52.248;15.818;2023-03-01T18:18:22;411.45;;;178.73;;
28577;SDS011;15769;52.248;15.818;2023-03-01T18:28:35;352.13;;;146.50;;
28577;SDS011;15769;52.248;15.818;2023-03-01T18:33:44;232.10;;;99.88;;
28577;SDS011;15769;52.248;15.818;2023-03-01T18:38:47;223.60;;;93.07;;
28577;SDS011;15769;52.248;15.818;2023-03-01T18:43:51;246.35;;;88.00;;
28577;SDS011;15769;52.248;15.818;2023-03-01T18:48:58;343.98;;;138.52;;
28577;SDS011;15769;52.248;15.818;2023-03-01T18:54:03;226.65;;;93.65;;
28577;SDS011;15769;52.248;15.818;2023-03-01T18:59:12;233.55;;;95.95;;
28577;SDS011;15769;52.248;15.818;2023-03-01T19:04:15;293.80;;;113.13;;
28577;SDS011;15769;52.248;15.818;2023-03-01T19:09:18;255.80;;;104.65;;
28577;SDS011;15769;52.248;15.818;2023-03-01T19:14:23;224.43;;;99.13;;
28577;SDS011;15769;52.248;15.818;2023-03-01T19:19:27;232.27;;;105.93;;
28577;SDS011;15769;52.248;15.818;2023-03-01T19:24:30;247.07;;;104.95;;
28577;SDS011;15769;52.248;15.818;2023-03-01T19:29:34;304.98;;;114.85;;
28577;SDS011;15769;52.248;15.818;2023-03-01T19:34:36;237.10;;;95.47;;
28577;SDS011;15769;52.248;15.818;2023-03-01T19:39:52;122.28;;;63.10;;
28577;SDS011;15769;52.248;15.818;2023-03-01T19:44:58;106.30;;;47.10;;
28577;SDS011;15769;52.248;15.818;2023-03-01T19:50:02;167.85;;;68.00;;
28577;SDS011;15769;52.248;15.818;2023-03-01T19:55:05;188.77;;;81.13;;
28577;SDS011;15769;52.248;15.818;2023-03-01T20:00:15;406.95;;;166.73;;
28577;SDS011;15769;52.248;15.818;2023-03-01T20:05:18;316.88;;;132.65;;
28577;SDS011;15769;52.248;15.818;2023-03-01T20:10:21;316.10;;;127.43;;
28577;SDS011;15769;52.248;15.818;2023-03-01T20:15:24;297.20;;;122.68;;
28577;SDS011;15769;52.248;15.818;2023-03-01T20:20:34;302.13;;;125.70;;
28577;SDS011;15769;52.248;15.818;2023-03-01T20:25:39;322.85;;;136.05;;
28577;SDS011;15769;52.248;15.818;2023-03-01T20:36:34;264.92;;;109.72;;
28577;SDS011;15769;52.248;15.818;2023-03-01T20:41:39;292.60;;;107.53;;
28577;SDS011;15769;52.248;15.818;2023-03-01T20:46:42;269.70;;;101.47;;
28577;SDS011;15769;52.248;15.818;2023-03-01T20:51:52;262.10;;;99.72;;
28577;SDS011;15769;52.248;15.818;2023-03-01T20:56:55;257.02;;;96.18;;
28577;SDS011;15769;52.248;15.818;2023-03-01T21:01:58;282.05;;;107.03;;
28577;SDS011;15769;52.248;15.818;2023-03-01T21:07:01;261.33;;;100.00;;
28577;SDS011;15769;52.248;15.818;2023-03-01T21:12:04;278.47;;;105.30;;
28577;SDS011;15769;52.248;15.818;2023-03-01T21:17:11;283.15;;;105.82;;
28577;SDS011;15769;52.248;15.818;2023-03-01T21:22:18;283.23;;;106.65;;
28577;SDS011;15769;52.248;15.818;2023-03-01T21:27:28;259.00;;;101.30;;
28577;SDS011;15769;52.248;15.818;2023-03-01T21:32:31;252.40;;;98.82;;
28577;SDS011;15769;52.248;15.818;2023-03-01T21:37:33;254.57;;;98.17;;
28577;SDS011;15769;52.248;15.818;2023-03-01T21:42:37;259.48;;;100.03;;
28577;SDS011;15769;52.248;15.818;2023-03-01T21:47:41;229.45;;;89.22;;
28577;SDS011;15769;52.248;15.818;2023-03-01T21:52:44;210.50;;;80.53;;
28577;SDS011;15769;52.248;15.818;2023-03-01T21:57:47;230.27;;;85.82;;
28577;SDS011;15769;52.248;15.818;2023-03-01T22:02:52;241.40;;;91.80;;
28577;SDS011;15769;52.248;15.818;2023-03-01T22:08:03;235.25;;;88.07;;
28577;SDS011;15769;52.248;15.818;2023-03-01T22:13:07;225.77;;;84.53;;
28577;SDS011;15769;52.248;15.818;2023-03-01T22:18:12;244.13;;;82.93;;
28577;SDS011;15769;52.248;15.818;2023-03-01T22:23:15;219.73;;;79.40;;
28577;SDS011;15769;52.248;15.818;2023-03-01T22:28:20;208.60;;;74.63;;
28577;SDS011;15769;52.248;15.818;2023-03-01T22:33:23;199.27;;;71.40;;
28577;SDS011;15769;52.248;15.818;2023-03-01T22:38:25;208.17;;;78.43;;
28577;SDS011;15769;52.248;15.818;2023-03-01T22:43:28;207.65;;;75.63;;
28577;SDS011;15769;52.248;15.818;2023-03-01T22:48:33;193.00;;;70.05;;
28577;SDS011;15769;52.248;15.818;2023-03-01T22:53:35;200.90;;;73.93;;
28577;SDS011;15769;52.248;15.818;2023-03-01T22:58:38;218.38;;;75.25;;
28577;SDS011;15769;52.248;15.818;2023-03-01T23:03:42;222.95;;;78.05;;
28577;SDS011;15769;52.248;15.818;2023-03-01T23:13:57;189.77;;;67.68;;
28577;SDS011;15769;52.248;15.818;2023-03-01T23:19:00;142.23;;;55.77;;
28577;SDS011;15769;52.248;15.818;2023-03-01T23:24:06;162.70;;;58.85;;
28577;SDS011;15769;52.248;15.818;2023-03-01T23:29:09;160.82;;;60.17;;
28577;SDS011;15769;52.248;15.818;2023-03-01T23:34:16;170.85;;;62.42;;
28577;SDS011;15769;52.248;15.818;2023-03-01T23:39:21;159.75;;;61.50;;
28577;SDS011;15769;52.248;15.818;2023-03-01T23:44:24;163.20;;;60.40;;
28577;SDS011;15769;52.248;15.818;2023-03-01T23:49:28;151.95;;;55.88;;
28577;SDS011;15769;52.248;15.818;2023-03-01T23:59:51;136.27;;;52.58;;
